Time;durP1;ratioP1;P1;durP2;ratioP2;P2;SDS_P1;SDS_P2;PMS_P1;PMS_P2;Temp;Humidity;BMP_temperature;BMP_pressure;BME280_temperature;BME280_humidity;BME280_pressure;Samples;Min_cycle;Max_cycle;Signal;HPM_P1;HPM_P2
2022/01/19 00:01:16;;;;;;;0.60;0.50;;;;;;;;;;5058315;28;20189;-72
2022/01/19 00:03:44;;;;;;;0.60;0.50;;;;;;;;;;5074729;28;20217;-71
2022/01/19 00:06:11;;;;;;;0.60;0.50;;;;;;;;;;5055058;28;20208;-72
2022/01/19 00:08:38;;;;;;;0.60;0.50;;;;;;;;;;5061438;28;20206;-71
2022/01/19 00:11:05;;;;;;;0.60;0.50;;;;;;;;;;5065778;28;20218;-72
2022/01/19 00:13:32;;;;;;;0.60;0.50;;;;;;;;;;5056686;28;20219;-71
2022/01/19 00:15:59;;;;;;;0.60;0.50;;;;;;;;;;5076112;28;20165;-72
2022/01/19 00:18:26;;;;;;;0.60;0.60;;;;;;;;;;5069472;28;20197;-72
2022/01/19 00:20:55;;;;;;;0.60;0.50;;;;;;;;;;5075068;28;20540;-71
2022/01/19 00:23:22;;;;;;;0.60;0.50;;;;;;;;;;5059284;28;20623;-71
2022/01/19 00:25:51;;;;;;;0.50;0.50;;;;;;;;;;5069775;28;20209;-72
2022/01/19 00:28:18;;;;;;;0.50;0.50;;;;;;;;;;5075724;28;20237;-72
2022/01/19 00:30:44;;;;;;;0.60;0.52;;;;;;;;;;5057693;28;20196;-72
2022/01/19 00:33:13;;;;;;;0.95;0.95;;;;;;;;;;5074011;28;20204;-72
2022/01/19 00:35:40;;;;;;;0.50;0.50;;;;;;;;;;5057343;28;20221;-72
2022/01/19 00:38:09;;;;;;;0.50;0.50;;;;;;;;;;5061885;28;20218;-72
2022/01/19 00:40:36;;;;;;;0.50;0.50;;;;;;;;;;5054359;28;20615;-71
2022/01/19 00:43:03;;;;;;;0.50;0.50;;;;;;;;;;5037799;28;20201;-72
2022/01/19 00:45:30;;;;;;;0.50;0.50;;;;;;;;;;5052936;28;20692;-71
2022/01/19 00:48:12;;;;;;;1.67;1.08;;;;;;;;;;5069345;28;20200;-72
2022/01/19 00:50:40;;;;;;;0.52;0.50;;;;;;;;;;5053774;28;20505;-72
2022/01/19 00:53:06;;;;;;;0.50;0.50;;;;;;;;;;5056567;28;20212;-72
2022/01/19 00:55:35;;;;;;;0.50;0.50;;;;;;;;;;5055271;28;20687;-72
2022/01/19 00:58:02;;;;;;;0.50;0.50;;;;;;;;;;5053812;28;20193;-71
2022/01/19 01:00:30;;;;;;;0.50;0.50;;;;;;;;;;5056450;28;20243;-72
2022/01/19 01:02:57;;;;;;;0.55;0.50;;;;;;;;;;5053421;28;20525;-72
2022/01/19 01:05:29;;;;;;;0.60;0.50;;;;;;;;;;5053455;28;20213;-72
2022/01/19 01:07:56;;;;;;;0.60;0.50;;;;;;;;;;5059214;28;20240;-72
2022/01/19 01:10:23;;;;;;;0.60;0.60;;;;;;;;;;5069834;28;20507;-72
2022/01/19 01:12:53;;;;;;;0.60;0.50;;;;;;;;;;5055847;28;20182;-72
2022/01/19 01:20:36;;;;;;;0.60;0.50;;;;;;;;;;5053479;28;20662;-73
2022/01/19 01:23:03;;;;;;;0.60;0.50;;;;;;;;;;5053853;28;20670;-72
2022/01/19 01:25:30;;;;;;;0.60;0.50;;;;;;;;;;5053084;28;20323;-73
2022/01/19 01:27:59;;;;;;;0.60;0.50;;;;;;;;;;5067672;28;20279;-73
2022/01/19 01:30:26;;;;;;;0.60;0.50;;;;;;;;;;5073199;28;20714;-72
2022/01/19 01:32:53;;;;;;;2.13;1.92;;;;;;;;;;5073164;28;20228;-73
2022/01/19 01:35:20;;;;;;;0.50;0.50;;;;;;;;;;5060635;28;20202;-72
2022/01/19 01:37:47;;;;;;;0.60;0.50;;;;;;;;;;5058061;28;20762;-73
2022/01/19 01:40:19;;;;;;;0.60;0.60;;;;;;;;;;5073353;28;20193;-72
2022/01/19 01:42:51;;;;;;;0.50;0.50;;;;;;;;;;5072908;28;20204;-73
2022/01/19 01:45:33;;;;;;;0.50;0.50;;;;;;;;;;5071386;28;20216;-72
2022/01/19 01:48:17;;;;;;;0.50;0.50;;;;;;;;;;5068981;28;20279;-74
2022/01/19 01:53:51;;;;;;;0.52;0.50;;;;;;;;;;5069136;28;20223;-72
2022/01/19 01:56:22;;;;;;;0.60;0.50;;;;;;;;;;5073383;28;20185;-72
2022/01/19 01:59:11;;;;;;;0.60;0.50;;;;;;;;;;5072845;28;20213;-73
2022/01/19 02:01:43;;;;;;;0.60;0.50;;;;;;;;;;5062398;28;20549;-73
2022/01/19 02:04:22;;;;;;;0.60;0.60;;;;;;;;;;5052138;28;20227;-73
2022/01/19 02:07:29;;;;;;;0.60;0.50;;;;;;;;;;5054410;28;20213;-72
2022/01/19 02:10:02;;;;;;;0.60;0.50;;;;;;;;;;5073626;28;20196;-72
2022/01/19 02:24:03;;;;;;;0.60;0.50;;;;;;;;;;5052905;28;20230;-72
2022/01/19 02:26:50;;;;;;;0.60;0.50;;;;;;;;;;5053148;28;20204;-73
2022/01/19 02:40:41;;;;;;;0.60;0.50;;;;;;;;;;5053861;28;20431;-72
2022/01/19 02:43:20;;;;;;;0.60;0.60;;;;;;;;;;5052443;28;20440;-72
2022/01/19 02:51:23;;;;;;;0.60;0.50;;;;;;;;;;5053476;28;20436;-71
2022/01/19 02:53:51;;;;;;;0.60;0.60;;;;;;;;;;5051873;28;20232;-72
2022/01/19 02:56:25;;;;;;;0.60;0.57;;;;;;;;;;5053761;28;20539;-72
2022/01/19 02:58:57;;;;;;;0.60;0.50;;;;;;;;;;5054234;28;20526;-71
2022/01/19 03:09:30;;;;;;;0.60;0.50;;;;;;;;;;5054172;28;20425;-72
2022/01/19 03:11:57;;;;;;;1.10;1.00;;;;;;;;;;5068399;28;20436;-72
2022/01/19 03:14:26;;;;;;;0.60;0.50;;;;;;;;;;5036978;28;20503;-72
2022/01/19 03:16:54;;;;;;;0.60;0.50;;;;;;;;;;5051522;28;20432;-72
2022/01/19 03:19:21;;;;;;;0.60;0.50;;;;;;;;;;5050349;28;20443;-72
2022/01/19 03:21:49;;;;;;;0.60;0.60;;;;;;;;;;5071739;28;20467;-72
2022/01/19 03:24:16;;;;;;;0.60;0.60;;;;;;;;;;5069879;28;20538;-72
2022/01/19 03:26:45;;;;;;;0.60;0.60;;;;;;;;;;5055385;28;20473;-72
2022/01/19 03:29:15;;;;;;;0.60;0.60;;;;;;;;;;5071606;28;20439;-73
2022/01/19 03:31:43;;;;;;;0.60;0.60;;;;;;;;;;5071520;28;20522;-72
2022/01/19 03:34:12;;;;;;;0.60;0.60;;;;;;;;;;5067841;28;20639;-72
2022/01/19 03:36:42;;;;;;;0.60;0.60;;;;;;;;;;5051642;28;20509;-73
2022/01/19 03:39:11;;;;;;;0.60;0.50;;;;;;;;;;5059844;28;20458;-72
2022/01/19 03:41:38;;;;;;;0.60;0.50;;;;;;;;;;5055079;28;20455;-72
2022/01/19 03:44:06;;;;;;;0.60;0.60;;;;;;;;;;5066965;28;20472;-72
2022/01/19 03:46:34;;;;;;;0.60;0.60;;;;;;;;;;5051823;28;20467;-72
2022/01/19 03:49:20;;;;;;;0.60;0.60;;;;;;;;;;5051130;28;20471;-71
2022/01/19 03:51:48;;;;;;;0.60;0.60;;;;;;;;;;5051047;28;20460;-73
2022/01/19 03:54:15;;;;;;;0.60;0.60;;;;;;;;;;5051494;28;20815;-72
2022/01/19 03:56:41;;;;;;;0.60;0.60;;;;;;;;;;5050727;28;20430;-72
2022/01/19 03:59:09;;;;;;;0.60;0.60;;;;;;;;;;5055041;28;20815;-72
2022/01/19 04:01:37;;;;;;;0.60;0.60;;;;;;;;;;5071555;28;20492;-72
2022/01/19 04:09:28;;;;;;;0.60;0.60;;;;;;;;;;5051222;28;20436;-73
2022/01/19 04:11:55;;;;;;;0.60;0.60;;;;;;;;;;5051551;28;20455;-72
2022/01/19 04:14:27;;;;;;;0.60;0.60;;;;;;;;;;5060010;28;20445;-72
2022/01/19 04:16:56;;;;;;;0.60;0.60;;;;;;;;;;5054652;28;20435;-72
2022/01/19 04:22:14;;;;;;;0.70;0.70;;;;;;;;;;5060926;28;20462;-73
2022/01/19 04:24:43;;;;;;;0.60;0.60;;;;;;;;;;5055101;28;20924;-72
2022/01/19 04:30:07;;;;;;;0.60;0.60;;;;;;;;;;5054863;28;20527;-71
2022/01/19 04:35:23;;;;;;;0.60;0.60;;;;;;;;;;5054190;28;20866;-73
2022/01/19 04:38:10;;;;;;;0.60;0.60;;;;;;;;;;5038181;28;20470;-73
2022/01/19 04:46:43;;;;;;;0.60;0.60;;;;;;;;;;5074469;28;20486;-71
2022/01/19 05:15:46;;;;;;;0.60;0.60;;;;;;;;;;5054216;28;20439;-72
2022/01/19 05:18:19;;;;;;;0.60;0.60;;;;;;;;;;5053494;28;20452;-72
2022/01/19 05:20:47;;;;;;;0.60;0.60;;;;;;;;;;5053510;28;20216;-72
2022/01/19 05:23:39;;;;;;;0.60;0.50;;;;;;;;;;5054132;28;20472;-72
2022/01/19 05:26:07;;;;;;;0.60;0.60;;;;;;;;;;5037314;28;20508;-72
2022/01/19 05:28:37;;;;;;;0.60;0.60;;;;;;;;;;5053382;28;20446;-72
2022/01/19 05:31:05;;;;;;;0.60;0.50;;;;;;;;;;5053483;28;20455;-72
2022/01/19 05:33:34;;;;;;;0.60;0.60;;;;;;;;;;5052505;28;20737;-72
2022/01/19 05:36:01;;;;;;;0.70;0.70;;;;;;;;;;5053314;28;20428;-72
2022/01/19 05:38:30;;;;;;;0.60;0.60;;;;;;;;;;5055076;28;20527;-72
2022/01/19 05:41:15;;;;;;;0.60;0.60;;;;;;;;;;5062497;28;20431;-71
2022/01/19 05:43:44;;;;;;;0.60;0.60;;;;;;;;;;5053811;28;20436;-71
2022/01/19 05:46:11;;;;;;;0.60;0.60;;;;;;;;;;5053045;28;21026;-71
2022/01/19 05:48:39;;;;;;;0.60;0.60;;;;;;;;;;5052406;28;21052;-73
2022/01/19 05:51:07;;;;;;;0.60;0.60;;;;;;;;;;5053363;28;20428;-71
2022/01/19 05:53:34;;;;;;;0.60;0.60;;;;;;;;;;5053359;28;20459;-71
2022/01/19 05:56:05;;;;;;;0.60;0.60;;;;;;;;;;5053092;28;20952;-72
2022/01/19 05:58:42;;;;;;;0.60;0.60;;;;;;;;;;5053761;28;20193;-71
2022/01/19 06:01:10;;;;;;;0.60;0.60;;;;;;;;;;5053019;28;20463;-71
2022/01/19 06:03:37;;;;;;;0.60;0.60;;;;;;;;;;5052402;28;20479;-71
2022/01/19 06:06:27;;;;;;;0.60;0.57;;;;;;;;;;5053650;28;20984;-70
2022/01/19 06:09:34;;;;;;;0.60;0.50;;;;;;;;;;5061866;28;20446;-70
2022/01/19 06:12:04;;;;;;;0.60;0.60;;;;;;;;;;5058440;28;20499;-75
2022/01/19 06:14:32;;;;;;;0.60;0.60;;;;;;;;;;5054257;28;20463;-75
2022/01/19 06:17:01;;;;;;;0.60;0.60;;;;;;;;;;5037251;28;20440;-76
2022/01/19 06:19:28;;;;;;;0.60;0.60;;;;;;;;;;5053005;28;20811;-75
2022/01/19 06:21:57;;;;;;;1.33;1.23;;;;;;;;;;5052464;28;20471;-73
2022/01/19 06:24:24;;;;;;;0.60;0.60;;;;;;;;;;5053126;28;20527;-76
2022/01/19 06:26:51;;;;;;;0.63;0.63;;;;;;;;;;5035769;28;20209;-76
2022/01/19 06:29:18;;;;;;;0.60;0.60;;;;;;;;;;5054899;28;20435;-76
2022/01/19 06:31:45;;;;;;;0.60;0.60;;;;;;;;;;5035981;28;20499;-76
2022/01/19 06:34:13;;;;;;;0.60;0.60;;;;;;;;;;5051989;28;20482;-77
2022/01/19 06:36:55;;;;;;;0.70;0.60;;;;;;;;;;5052183;28;20472;-77
2022/01/19 06:39:39;;;;;;;0.60;0.60;;;;;;;;;;5052204;28;20436;-77
2022/01/19 06:42:07;;;;;;;0.60;0.60;;;;;;;;;;5052253;28;20460;-77
2022/01/19 06:44:36;;;;;;;0.60;0.60;;;;;;;;;;5060177;28;20547;-76
2022/01/19 06:47:04;;;;;;;0.60;0.60;;;;;;;;;;5071146;28;20873;-76
2022/01/19 06:49:31;;;;;;;0.70;0.70;;;;;;;;;;5055235;28;20439;-76
2022/01/19 06:52:01;;;;;;;0.60;0.60;;;;;;;;;;5035885;28;20825;-77
2022/01/19 06:54:29;;;;;;;0.60;0.60;;;;;;;;;;5045658;28;20908;-77
2022/01/19 06:56:58;;;;;;;1.07;1.07;;;;;;;;;;5072076;28;20455;-77
2022/01/19 06:59:33;;;;;;;0.60;0.60;;;;;;;;;;5072127;28;20529;-75
2022/01/19 07:02:06;;;;;;;0.60;0.53;;;;;;;;;;5056761;28;20453;-75
2022/01/19 07:04:49;;;;;;;0.60;0.60;;;;;;;;;;5054562;28;20801;-74
2022/01/19 07:07:29;;;;;;;0.60;0.60;;;;;;;;;;5068448;28;20873;-74
2022/01/19 07:09:58;;;;;;;0.60;0.60;;;;;;;;;;5053580;28;20523;-75
2022/01/19 07:12:26;;;;;;;0.60;0.60;;;;;;;;;;5071805;28;20462;-75
2022/01/19 07:14:53;;;;;;;0.70;0.60;;;;;;;;;;5060933;28;20588;-76
2022/01/19 07:17:20;;;;;;;0.60;0.60;;;;;;;;;;5052859;28;20436;-76
2022/01/19 07:19:48;;;;;;;0.70;0.60;;;;;;;;;;5051300;28;20451;-76
2022/01/19 07:22:18;;;;;;;0.60;0.60;;;;;;;;;;5051661;28;20955;-76
2022/01/19 07:24:47;;;;;;;0.70;0.70;;;;;;;;;;5057850;28;20428;-75
2022/01/19 07:27:14;;;;;;;0.60;0.60;;;;;;;;;;5069812;28;20463;-75
2022/01/19 07:29:43;;;;;;;0.60;0.60;;;;;;;;;;5065938;28;20440;-75
2022/01/19 07:32:12;;;;;;;0.60;0.60;;;;;;;;;;5054302;28;20463;-76
2022/01/19 07:34:41;;;;;;;0.70;0.60;;;;;;;;;;5053832;28;20455;-76
2022/01/19 07:37:11;;;;;;;0.60;0.60;;;;;;;;;;5058439;28;20569;-76
2022/01/19 07:39:38;;;;;;;0.60;0.60;;;;;;;;;;5061962;28;20435;-76
2022/01/19 07:42:06;;;;;;;0.70;0.60;;;;;;;;;;5047445;28;20440;-76
2022/01/19 07:44:53;;;;;;;0.80;0.80;;;;;;;;;;5060612;28;20492;-77
2022/01/19 07:47:45;;;;;;;0.60;0.60;;;;;;;;;;5054349;28;20555;-77
2022/01/19 07:50:41;;;;;;;0.60;0.60;;;;;;;;;;5045362;28;20468;-76
2022/01/19 07:53:27;;;;;;;0.60;0.60;;;;;;;;;;5069448;28;20442;-76
2022/01/19 07:56:12;;;;;;;0.60;0.60;;;;;;;;;;5051965;28;20923;-75
2022/01/19 07:59:09;;;;;;;0.60;0.60;;;;;;;;;;5055095;28;20956;-75
2022/01/19 08:01:49;;;;;;;0.63;0.63;;;;;;;;;;5054783;28;20451;-76
2022/01/19 08:04:39;;;;;;;0.60;0.60;;;;;;;;;;5060454;28;20977;-76
2022/01/19 08:07:06;;;;;;;0.60;0.60;;;;;;;;;;5046735;28;20890;-75
2022/01/19 08:09:35;;;;;;;0.60;0.60;;;;;;;;;;5055377;28;20952;-75
2022/01/19 08:12:02;;;;;;;0.60;0.60;;;;;;;;;;5040436;28;20448;-75
2022/01/19 08:14:30;;;;;;;0.60;0.60;;;;;;;;;;5060570;28;20479;-74
2022/01/19 08:17:00;;;;;;;0.60;0.60;;;;;;;;;;5054526;28;21051;-75
2022/01/19 08:19:32;;;;;;;0.60;0.60;;;;;;;;;;5053808;28;20494;-75
2022/01/19 08:21:59;;;;;;;0.60;0.60;;;;;;;;;;5054693;28;20471;-74
2022/01/19 08:24:26;;;;;;;0.60;0.60;;;;;;;;;;5055069;28;20783;-74
2022/01/19 08:26:56;;;;;;;0.60;0.60;;;;;;;;;;5063858;28;20474;-75
2022/01/19 08:29:33;;;;;;;0.60;0.50;;;;;;;;;;5072885;28;20441;-74
2022/01/19 08:32:05;;;;;;;0.60;0.60;;;;;;;;;;5052361;28;20538;-73
2022/01/19 08:35:12;;;;;;;0.60;0.60;;;;;;;;;;5054818;28;20454;-73
2022/01/19 08:38:11;;;;;;;0.60;0.60;;;;;;;;;;5043351;28;20452;-73
2022/01/19 08:40:54;;;;;;;0.70;0.60;;;;;;;;;;5062838;28;20447;-74
2022/01/19 08:43:25;;;;;;;0.60;0.53;;;;;;;;;;5061772;28;20447;-74
2022/01/19 08:45:53;;;;;;;0.60;0.60;;;;;;;;;;5073880;28;20469;-75
2022/01/19 08:48:25;;;;;;;0.60;0.60;;;;;;;;;;5057738;28;20464;-74
2022/01/19 08:51:12;;;;;;;0.60;0.60;;;;;;;;;;5067650;28;20867;-74
2022/01/19 08:53:50;;;;;;;0.70;0.70;;;;;;;;;;5060168;28;21159;-75
2022/01/19 08:56:32;;;;;;;0.60;0.60;;;;;;;;;;5070807;28;20888;-74
2022/01/19 08:58:59;;;;;;;0.60;0.60;;;;;;;;;;5065716;28;20439;-74
2022/01/19 09:01:26;;;;;;;0.60;0.60;;;;;;;;;;5057905;28;20436;-74
2022/01/19 09:03:55;;;;;;;0.60;0.50;;;;;;;;;;5073409;28;20872;-74
2022/01/19 09:06:22;;;;;;;0.60;0.60;;;;;;;;;;5067492;28;20428;-75
2022/01/19 09:08:49;;;;;;;0.60;0.60;;;;;;;;;;5057552;28;20469;-74
2022/01/19 09:11:15;;;;;;;0.70;0.60;;;;;;;;;;5064044;28;20962;-74
2022/01/19 09:13:44;;;;;;;0.60;0.60;;;;;;;;;;5068077;28;20435;-76
2022/01/19 09:16:14;;;;;;;0.60;0.50;;;;;;;;;;5072991;28;20415;-75
2022/01/19 09:18:40;;;;;;;0.67;0.60;;;;;;;;;;5061966;28;20671;-76
2022/01/19 09:21:09;;;;;;;0.60;0.60;;;;;;;;;;5053510;28;20453;-76
2022/01/19 09:23:37;;;;;;;0.60;0.60;;;;;;;;;;5037152;28;20460;-76
2022/01/19 09:26:05;;;;;;;0.60;0.60;;;;;;;;;;5071086;28;20431;-76
2022/01/19 09:28:32;;;;;;;0.63;0.60;;;;;;;;;;5074990;28;20959;-74
2022/01/19 09:31:18;;;;;;;0.60;0.60;;;;;;;;;;5053800;28;20451;-74
2022/01/19 09:33:54;;;;;;;0.60;0.60;;;;;;;;;;5054552;28;20490;-74
2022/01/19 09:38:55;;;;;;;0.60;0.60;;;;;;;;;;5055777;28;21374;-74
2022/01/19 09:41:22;;;;;;;0.60;0.60;;;;;;;;;;5036245;28;20436;-75
2022/01/19 09:43:50;;;;;;;0.60;0.60;;;;;;;;;;5054463;28;20473;-73
2022/01/19 09:46:17;;;;;;;0.70;0.70;;;;;;;;;;5072905;28;20443;-73
2022/01/19 09:48:44;;;;;;;0.60;0.60;;;;;;;;;;5047548;28;20698;-73
2022/01/19 09:51:12;;;;;;;0.60;0.60;;;;;;;;;;5052319;28;20766;-74
2022/01/19 09:53:41;;;;;;;0.60;0.60;;;;;;;;;;5061069;28;20463;-73
2022/01/19 09:56:09;;;;;;;0.70;0.70;;;;;;;;;;5071509;28;20423;-74
2022/01/19 09:58:36;;;;;;;0.60;0.60;;;;;;;;;;5066858;28;20451;-74
2022/01/19 10:01:03;;;;;;;0.60;0.60;;;;;;;;;;5067345;28;20435;-74
2022/01/19 10:03:32;;;;;;;0.63;0.60;;;;;;;;;;5053875;28;20490;-74
2022/01/19 10:06:03;;;;;;;0.70;0.70;;;;;;;;;;5062329;28;20426;-74
2022/01/19 10:08:32;;;;;;;0.60;0.60;;;;;;;;;;5072425;28;20478;-74
2022/01/19 10:11:22;;;;;;;0.60;0.60;;;;;;;;;;5058923;28;20817;-74
2022/01/19 10:19:28;;;;;;;0.60;0.60;;;;;;;;;;5059536;28;20460;-73
2022/01/19 10:21:59;;;;;;;0.67;0.60;;;;;;;;;;5053908;28;20535;-75
2022/01/19 10:24:31;;;;;;;0.60;0.60;;;;;;;;;;5054599;28;20436;-75
2022/01/19 10:27:13;;;;;;;0.60;0.60;;;;;;;;;;5052147;28;20998;-75
2022/01/19 10:29:42;;;;;;;0.60;0.60;;;;;;;;;;5053036;28;20444;-75
2022/01/19 10:32:09;;;;;;;0.70;0.70;;;;;;;;;;5053883;28;20446;-74
2022/01/19 10:34:36;;;;;;;0.67;0.60;;;;;;;;;;5052790;28;20411;-75
2022/01/19 10:37:05;;;;;;;0.60;0.60;;;;;;;;;;5071085;28;20439;-76
2022/01/19 10:39:38;;;;;;;0.60;0.60;;;;;;;;;;5073162;28;20446;-77
2022/01/19 10:42:07;;;;;;;0.70;0.60;;;;;;;;;;5054863;28;20424;-77
2022/01/19 10:44:34;;;;;;;0.60;0.60;;;;;;;;;;5054278;28;20811;-77
2022/01/19 10:50:19;;;;;;;0.60;0.53;;;;;;;;;;5110479;27;20642;-75
2022/01/19 10:52:46;;;;;;;0.60;0.60;;;;;;;;;;5111302;28;20453;-75
2022/01/19 10:55:25;;;;;;;0.60;0.60;;;;;;;;;;5085935;28;20427;-75
2022/01/19 10:57:51;;;;;;;0.60;0.50;;;;;;;;;;5069193;28;20435;-74
2022/01/19 11:00:22;;;;;;;0.60;0.60;;;;;;;;;;5052865;28;20798;-75
2022/01/19 11:02:50;;;;;;;0.63;0.60;;;;;;;;;;5068992;28;20411;-76
2022/01/19 11:05:38;;;;;;;0.60;0.60;;;;;;;;;;5071146;28;20435;-75
2022/01/19 11:08:05;;;;;;;0.60;0.60;;;;;;;;;;5068935;28;20569;-75
2022/01/19 11:10:32;;;;;;;0.60;0.60;;;;;;;;;;5074318;28;20495;-75
2022/01/19 11:12:59;;;;;;;0.70;0.63;;;;;;;;;;5059499;28;20918;-76
2022/01/19 11:15:26;;;;;;;0.90;0.90;;;;;;;;;;5068895;28;20798;-76
2022/01/19 11:17:53;;;;;;;0.70;0.60;;;;;;;;;;5068720;28;20436;-76
2022/01/19 11:20:26;;;;;;;0.70;0.60;;;;;;;;;;5088739;28;20450;-76
2022/01/19 11:23:06;;;;;;;0.70;0.60;;;;;;;;;;5090198;28;20442;-76
2022/01/19 11:25:40;;;;;;;0.70;0.60;;;;;;;;;;5089271;28;20958;-76
2022/01/19 11:28:23;;;;;;;0.70;0.70;;;;;;;;;;5075258;28;20443;-76
2022/01/19 11:30:50;;;;;;;0.70;0.60;;;;;;;;;;5068803;28;20431;-75
2022/01/19 11:33:25;;;;;;;0.70;0.60;;;;;;;;;;5068724;28;20411;-73
2022/01/19 11:35:55;;;;;;;0.60;0.60;;;;;;;;;;5067752;28;20445;-74
2022/01/19 11:38:36;;;;;;;0.70;0.60;;;;;;;;;;5069051;28;20443;-74
2022/01/19 11:41:04;;;;;;;0.60;0.60;;;;;;;;;;5076983;28;20446;-75
2022/01/19 11:43:31;;;;;;;0.70;0.60;;;;;;;;;;5086782;28;20441;-75
2022/01/19 11:45:58;;;;;;;0.67;0.60;;;;;;;;;;5068485;28;20439;-75
2022/01/19 11:48:26;;;;;;;0.60;0.60;;;;;;;;;;5073048;28;21043;-75
2022/01/19 11:51:05;;;;;;;0.70;0.60;;;;;;;;;;5070909;28;20441;-75
2022/01/19 11:53:47;;;;;;;0.60;0.60;;;;;;;;;;5083259;28;20467;-75
2022/01/19 11:56:14;;;;;;;1.33;1.23;;;;;;;;;;5080656;28;20438;-75
2022/01/19 11:59:00;;;;;;;0.60;0.60;;;;;;;;;;5087522;28;20950;-75
2022/01/19 12:01:27;;;;;;;0.70;0.60;;;;;;;;;;5069493;28;20423;-74
2022/01/19 12:04:11;;;;;;;0.70;0.60;;;;;;;;;;5055379;28;20849;-77
2022/01/19 12:06:42;;;;;;;1.27;0.60;;;;;;;;;;5055602;28;21029;-76
2022/01/19 12:09:12;;;;;;;0.70;0.60;;;;;;;;;;5059095;28;20458;-75
2022/01/19 12:11:50;;;;;;;0.60;0.60;;;;;;;;;;5053878;28;20450;-75
2022/01/19 12:17:01;;;;;;;0.70;0.60;;;;;;;;;;5054878;28;20514;-75
2022/01/19 12:19:29;;;;;;;0.60;0.60;;;;;;;;;;5066055;28;20499;-75
2022/01/19 12:22:05;;;;;;;0.70;0.60;;;;;;;;;;5074112;28;20462;-76
2022/01/19 12:24:37;;;;;;;0.60;0.60;;;;;;;;;;5073225;28;20439;-76
2022/01/19 12:27:06;;;;;;;0.60;0.60;;;;;;;;;;5072921;28;20980;-74
2022/01/19 12:29:50;;;;;;;0.60;0.60;;;;;;;;;;5072957;28;20463;-76
2022/01/19 12:32:36;;;;;;;0.70;0.60;;;;;;;;;;5056970;28;20482;-74
2022/01/19 12:35:10;;;;;;;0.70;0.70;;;;;;;;;;5052418;28;20436;-74
2022/01/19 12:37:40;;;;;;;0.70;0.60;;;;;;;;;;5065666;28;20459;-74
2022/01/19 12:40:25;;;;;;;0.60;0.60;;;;;;;;;;5073705;28;20431;-74
2022/01/19 12:42:54;;;;;;;0.60;0.60;;;;;;;;;;5071216;28;21477;-74
2022/01/19 12:45:25;;;;;;;0.60;0.60;;;;;;;;;;5066478;28;20435;-75
2022/01/19 12:47:53;;;;;;;0.70;0.60;;;;;;;;;;5062649;28;20431;-74
2022/01/19 12:50:40;;;;;;;0.60;0.60;;;;;;;;;;5073966;28;20478;-74
2022/01/19 12:53:10;;;;;;;0.60;0.60;;;;;;;;;;5073576;28;20458;-74
2022/01/19 12:55:46;;;;;;;0.70;0.70;;;;;;;;;;5071533;28;20877;-75
2022/01/19 12:58:15;;;;;;;0.63;0.60;;;;;;;;;;5075598;28;20431;-75
2022/01/19 13:00:45;;;;;;;1.23;1.17;;;;;;;;;;5073806;28;20836;-75
2022/01/19 13:03:18;;;;;;;0.70;0.60;;;;;;;;;;5075668;28;20918;-74
2022/01/19 13:05:46;;;;;;;0.67;0.60;;;;;;;;;;5073147;28;20477;-75
2022/01/19 13:08:24;;;;;;;0.70;0.60;;;;;;;;;;5059374;28;20463;-74
2022/01/19 13:10:54;;;;;;;0.70;0.60;;;;;;;;;;5056071;28;20891;-73
2022/01/19 13:15:49;;;;;;;0.70;0.60;;;;;;;;;;5073043;28;20435;-74
2022/01/19 13:18:16;;;;;;;2.77;1.20;;;;;;;;;;5074208;28;20762;-75
2022/01/19 13:20:47;;;;;;;0.70;0.60;;;;;;;;;;5072329;28;20426;-73
2022/01/19 13:23:14;;;;;;;0.60;0.60;;;;;;;;;;5073714;28;21006;-75
2022/01/19 13:25:53;;;;;;;0.70;0.60;;;;;;;;;;5073169;28;20439;-74
2022/01/19 13:28:24;;;;;;;0.70;0.60;;;;;;;;;;5070945;28;21138;-74
2022/01/19 13:30:51;;;;;;;0.60;0.60;;;;;;;;;;5054307;28;20467;-75
2022/01/19 13:33:17;;;;;;;0.60;0.60;;;;;;;;;;5052129;28;20538;-74
2022/01/19 13:35:44;;;;;;;0.60;0.60;;;;;;;;;;5071008;28;20456;-74
2022/01/19 13:38:12;;;;;;;0.70;0.60;;;;;;;;;;5056043;28;20456;-74
2022/01/19 13:40:39;;;;;;;0.60;0.60;;;;;;;;;;5055240;28;20415;-76
2022/01/19 13:43:11;;;;;;;0.70;0.70;;;;;;;;;;5056806;28;20415;-75
2022/01/19 13:50:40;;;;;;;0.70;0.70;;;;;;;;;;5061069;28;20451;-74
2022/01/19 13:53:07;;;;;;;0.70;0.70;;;;;;;;;;5060026;28;20830;-74
2022/01/19 13:55:34;;;;;;;0.60;0.60;;;;;;;;;;5054484;28;20432;-74
2022/01/19 13:58:06;;;;;;;0.60;0.60;;;;;;;;;;5058572;28;20442;-75
2022/01/19 14:00:34;;;;;;;0.60;0.60;;;;;;;;;;5074007;28;21002;-75
2022/01/19 14:03:03;;;;;;;0.60;0.60;;;;;;;;;;5074111;28;21012;-74
2022/01/19 14:05:37;;;;;;;0.67;0.60;;;;;;;;;;5055852;28;20443;-76
2022/01/19 14:08:05;;;;;;;1.00;1.00;;;;;;;;;;5073857;28;20462;-75
2022/01/19 14:10:38;;;;;;;0.60;0.60;;;;;;;;;;5074497;28;20458;-76
2022/01/19 14:13:22;;;;;;;0.60;0.60;;;;;;;;;;5071819;28;20423;-74
2022/01/19 14:15:51;;;;;;;1.43;1.33;;;;;;;;;;5071402;28;20438;-74
2022/01/19 14:18:18;;;;;;;0.60;0.50;;;;;;;;;;5069074;28;20437;-74
2022/01/19 14:20:45;;;;;;;0.70;0.70;;;;;;;;;;5071677;28;20422;-73
2022/01/19 14:23:15;;;;;;;0.63;0.60;;;;;;;;;;5069039;28;20458;-74
2022/01/19 14:25:43;;;;;;;0.70;0.70;;;;;;;;;;5072062;28;20459;-74
2022/01/19 14:28:13;;;;;;;2.30;1.27;;;;;;;;;;5073363;28;20782;-74
2022/01/19 14:30:41;;;;;;;0.60;0.60;;;;;;;;;;5071934;28;20467;-74
2022/01/19 14:33:30;;;;;;;0.60;0.50;;;;;;;;;;5064069;28;20451;-75
2022/01/19 14:35:59;;;;;;;0.60;0.60;;;;;;;;;;5064531;28;20447;-75
2022/01/19 14:38:28;;;;;;;0.60;0.50;;;;;;;;;;5073158;28;20447;-74
2022/01/19 14:40:58;;;;;;;0.60;0.60;;;;;;;;;;5071493;28;20439;-72
2022/01/19 14:43:27;;;;;;;0.60;0.60;;;;;;;;;;5070948;28;20426;-75
2022/01/19 14:46:02;;;;;;;0.60;0.60;;;;;;;;;;5053459;28;20909;-75
2022/01/19 14:48:36;;;;;;;0.60;0.60;;;;;;;;;;5055302;28;20492;-75
2022/01/19 14:51:16;;;;;;;0.60;0.60;;;;;;;;;;5053249;28;20456;-73
2022/01/19 14:53:43;;;;;;;0.60;0.60;;;;;;;;;;5053785;28;20435;-76
2022/01/19 14:56:10;;;;;;;0.60;0.60;;;;;;;;;;5035667;28;20482;-76
2022/01/19 14:58:37;;;;;;;0.60;0.60;;;;;;;;;;5039106;28;20439;-74
2022/01/19 15:01:04;;;;;;;0.60;0.60;;;;;;;;;;5069531;28;20220;-75
2022/01/19 15:03:54;;;;;;;0.60;0.60;;;;;;;;;;5073236;28;20602;-75
2022/01/19 15:06:21;;;;;;;0.80;0.80;;;;;;;;;;5069779;28;20451;-76
2022/01/19 15:08:48;;;;;;;2.10;1.43;;;;;;;;;;5072204;28;20500;-75
2022/01/19 15:11:16;;;;;;;0.60;0.60;;;;;;;;;;5072969;28;20955;-75
2022/01/19 15:13:43;;;;;;;0.60;0.60;;;;;;;;;;5072870;28;20907;-75
2022/01/19 15:16:10;;;;;;;0.60;0.57;;;;;;;;;;5058634;28;20485;-75
2022/01/19 15:18:37;;;;;;;0.67;0.60;;;;;;;;;;5059774;28;20541;-75
2022/01/19 15:21:06;;;;;;;0.60;0.60;;;;;;;;;;5065895;28;20486;-75
2022/01/19 15:23:36;;;;;;;0.60;0.50;;;;;;;;;;5051507;28;20459;-75
2022/01/19 15:26:04;;;;;;;0.60;0.60;;;;;;;;;;5051390;28;20440;-75
2022/01/19 15:28:31;;;;;;;0.60;0.60;;;;;;;;;;5051311;28;20448;-75
2022/01/19 15:30:58;;;;;;;0.60;0.60;;;;;;;;;;5052712;28;20213;-75
2022/01/19 15:33:27;;;;;;;0.60;0.60;;;;;;;;;;5051536;28;20436;-75
2022/01/19 15:35:55;;;;;;;0.60;0.60;;;;;;;;;;5052246;28;20458;-75
2022/01/19 15:38:24;;;;;;;0.60;0.50;;;;;;;;;;5072293;28;20463;-75
2022/01/19 15:40:51;;;;;;;0.60;0.60;;;;;;;;;;5076413;28;20411;-75
2022/01/19 15:43:18;;;;;;;0.60;0.60;;;;;;;;;;5074281;28;20467;-75
2022/01/19 15:45:46;;;;;;;0.60;0.50;;;;;;;;;;5068873;28;20436;-74
2022/01/19 15:48:16;;;;;;;0.60;0.60;;;;;;;;;;5074766;28;20220;-75
2022/01/19 15:50:45;;;;;;;0.90;0.90;;;;;;;;;;5057936;28;20603;-75
2022/01/19 15:53:12;;;;;;;0.60;0.60;;;;;;;;;;5065485;28;20525;-75
2022/01/19 15:55:40;;;;;;;0.70;0.60;;;;;;;;;;5071413;28;20438;-75
2022/01/19 15:58:16;;;;;;;0.60;0.60;;;;;;;;;;5069677;28;20279;-75
2022/01/19 16:00:43;;;;;;;0.70;0.60;;;;;;;;;;5054196;28;20479;-75
2022/01/19 16:03:10;;;;;;;0.60;0.53;;;;;;;;;;5054310;28;20459;-75
2022/01/19 16:05:38;;;;;;;0.60;0.60;;;;;;;;;;5065504;28;20455;-75
2022/01/19 16:08:05;;;;;;;0.60;0.60;;;;;;;;;;5086264;28;20553;-75
2022/01/19 16:10:32;;;;;;;0.80;0.80;;;;;;;;;;5058537;28;20455;-76
2022/01/19 16:13:01;;;;;;;0.60;0.60;;;;;;;;;;5075353;28;20411;-75
2022/01/19 16:15:28;;;;;;;0.60;0.60;;;;;;;;;;5075319;28;20411;-76
2022/01/19 16:17:55;;;;;;;0.60;0.60;;;;;;;;;;5074090;28;20591;-76
2022/01/19 16:20:22;;;;;;;0.60;0.50;;;;;;;;;;5070656;28;20435;-76
2022/01/19 16:28:21;;;;;;;0.60;0.50;;;;;;;;;;5066604;28;20427;-75
2022/01/19 16:30:49;;;;;;;0.60;0.60;;;;;;;;;;5073689;28;20530;-74
2022/01/19 16:33:16;;;;;;;0.60;0.60;;;;;;;;;;5055444;28;20474;-75
2022/01/19 16:35:45;;;;;;;0.60;0.50;;;;;;;;;;5072216;28;20443;-73
2022/01/19 16:38:13;;;;;;;0.60;0.50;;;;;;;;;;5061152;28;20447;-73
2022/01/19 16:40:44;;;;;;;0.60;0.50;;;;;;;;;;5074670;28;20415;-73
2022/01/19 16:43:12;;;;;;;0.60;0.52;;;;;;;;;;5063494;28;20982;-72
2022/01/19 16:45:41;;;;;;;0.60;0.60;;;;;;;;;;5056768;28;20244;-74
2022/01/19 16:48:10;;;;;;;0.60;0.60;;;;;;;;;;5058217;28;20201;-72
2022/01/19 16:50:38;;;;;;;1.65;0.88;;;;;;;;;;5069611;28;20460;-72
2022/01/19 16:53:04;;;;;;;0.60;0.50;;;;;;;;;;5053748;28;20202;-72
2022/01/19 16:55:32;;;;;;;0.60;0.50;;;;;;;;;;5053651;28;20514;-71
2022/01/19 16:57:58;;;;;;;0.60;0.50;;;;;;;;;;5057136;28;20190;-72
2022/01/19 17:00:25;;;;;;;0.60;0.50;;;;;;;;;;5055671;28;20192;-72
2022/01/19 17:02:54;;;;;;;0.60;0.50;;;;;;;;;;5051850;28;20451;-73
2022/01/19 17:05:21;;;;;;;0.60;0.50;;;;;;;;;;5068456;28;20496;-72